Time;durP1;ratioP1;P1;durP2;ratioP2;P2;SDS_P1;SDS_P2;PMS_P1;PMS_P2;Temp;Humidity;BMP_temperature;BMP_pressure;BME280_temperature;BME280_humidity;BME280_pressure;Samples;Min_cycle;Max_cycle;Signal;HPM_P1;HPM_P2
2021/12/04 00:00:44;;;;;;;44.50;17.50;;;;;;;-3.04;65.40;97867.41;103445;1318;22739;-84
2021/12/04 00:03:12;;;;;;;40.80;15.30;;;;;;;-3.06;65.66;97868.34;103014;1318;137846;-84
2021/12/04 00:05:45;;;;;;;52.20;20.40;;;;;;;-3.08;65.21;97876.38;103357;1322;22587;-84
2021/12/04 00:08:13;;;;;;;56.80;22.20;;;;;;;-3.10;65.94;97868.04;103678;1319;138088;-85
2021/12/04 00:10:41;;;;;;;58.90;22.00;;;;;;;-3.11;65.63;97864.30;103683;1315;23984;-83
2021/12/04 00:13:09;;;;;;;42.40;16.90;;;;;;;-3.13;65.50;97860.91;103545;1319;23139;-84
2021/12/04 00:15:36;;;;;;;42.80;17.20;;;;;;;-3.15;66.09;97860.46;103499;1320;138032;-84
2021/12/04 00:18:04;;;;;;;44.20;19.10;;;;;;;-3.16;66.28;97872.15;103802;1322;22619;-84
2021/12/04 00:20:31;;;;;;;50.30;20.90;;;;;;;-3.15;66.37;97871.34;103623;1317;139008;-84
2021/12/04 00:23:00;;;;;;;46.60;18.60;;;;;;;-3.13;66.11;97863.98;103656;1318;23537;-84
2021/12/04 00:25:29;;;;;;;46.90;18.20;;;;;;;-3.12;66.16;97856.95;103573;1317;25375;-84
2021/12/04 00:27:57;;;;;;;45.40;18.70;;;;;;;-3.12;66.01;97855.85;103274;1316;137847;-84
2021/12/04 00:30:26;;;;;;;42.30;18.10;;;;;;;-3.10;66.21;97856.40;103809;1322;22768;-84
2021/12/04 00:33:00;;;;;;;37.70;17.00;;;;;;;-3.11;66.44;97848.08;103549;1321;138030;-84
2021/12/04 00:49:18;;;;;;;47.10;17.60;;;;;;;-3.26;67.00;97861.36;104032;1322;25397;-84
2021/12/04 00:51:54;;;;;;;42.60;17.20;;;;;;;-3.30;67.02;97860.17;103673;1318;137933;-84
2021/12/04 00:54:27;;;;;;;42.20;16.50;;;;;;;-3.33;67.23;97860.70;104066;1321;25974;-84
2021/12/04 00:56:56;;;;;;;41.70;15.80;;;;;;;-3.36;67.51;97860.38;104244;1317;138080;-84
2021/12/04 00:59:26;;;;;;;42.30;16.60;;;;;;;-3.40;67.46;97865.70;103713;1317;24427;-84
2021/12/04 01:01:54;;;;;;;42.80;16.70;;;;;;;-3.43;67.55;97859.55;103699;1316;138045;-84
2021/12/04 01:04:23;;;;;;;38.20;16.00;;;;;;;-3.47;67.50;97857.96;103583;1316;22620;-84
2021/12/04 01:06:51;;;;;;;36.00;14.00;;;;;;;-3.50;67.62;97853.68;103674;1318;25431;-83
2021/12/04 01:09:23;;;;;;;43.70;14.60;;;;;;;-3.53;67.74;97856.41;103743;1322;138261;-83
2021/12/04 01:11:53;;;;;;;32.50;14.60;;;;;;;-3.56;67.87;97851.91;103613;1319;24406;-84
2021/12/04 01:14:24;;;;;;;35.30;14.70;;;;;;;-3.58;68.20;97848.17;103765;1316;138689;-84
2021/12/04 01:16:52;;;;;;;28.80;13.20;;;;;;;-3.56;67.92;97844.79;103568;1318;22584;-83
2021/12/04 01:19:20;;;;;;;29.90;12.60;;;;;;;-3.53;67.93;97838.63;103335;1323;23319;-83
2021/12/04 01:21:49;;;;;;;26.30;11.70;;;;;;;-3.50;68.08;97837.26;103647;1322;137925;-83
2021/12/04 01:24:17;;;;;;;;;;;;;;;-3.48;67.98;97834.92;103692;1322;24473;-83
2021/12/04 01:26:46;;;;;;;22.80;9.80;;;;;;;-3.48;67.82;97836.41;103529;1322;123817;-83
2021/12/04 01:29:15;;;;;;;23.40;11.20;;;;;;;-3.47;67.34;97831.78;103796;1316;23216;-83
2021/12/04 01:31:44;;;;;;;23.90;10.00;;;;;;;-3.48;67.34;97826.73;103410;1318;22726;-83
2021/12/04 01:34:12;;;;;;;25.00;10.00;;;;;;;-3.49;66.88;97825.98;103787;1323;138894;-82
2021/12/04 01:36:39;;;;;;;19.50;7.80;;;;;;;-3.50;66.99;97825.14;103632;1319;24400;-82
2021/12/04 01:39:09;;;;;;;23.10;9.70;;;;;;;-3.51;66.89;97825.48;104131;1322;137873;-83
2021/12/04 01:41:36;;;;;;;19.60;9.30;;;;;;;-3.53;66.41;97823.73;103723;1322;22747;-83
2021/12/04 01:44:05;;;;;;;21.40;8.90;;;;;;;-3.55;66.58;97824.79;103623;1322;137962;-83
2021/12/04 01:46:34;;;;;;;;;;;;;;;-3.57;66.45;97827.79;103635;1315;23250;-82
2021/12/04 01:49:02;;;;;;;23.70;7.00;;;;;;;-3.60;66.42;97824.83;103596;1323;25598;-82
2021/12/04 01:51:30;;;;;;;19.90;8.60;;;;;;;-3.63;66.20;97825.67;103564;1324;137959;-83
2021/12/04 01:53:57;;;;;;;26.80;9.30;;;;;;;-3.65;65.99;97824.13;104250;1316;22609;-83
2021/12/04 01:56:30;;;;;;;19.90;8.70;;;;;;;-3.67;66.70;97817.67;103515;1314;137950;-83
2021/12/04 01:58:58;;;;;;;24.40;9.40;;;;;;;-3.69;66.74;97814.15;104090;1322;22618;-83
2021/12/04 02:01:25;;;;;;;19.90;9.00;;;;;;;-3.71;66.90;97813.30;103621;1317;25585;-83
2021/12/04 02:03:52;;;;;;;23.60;8.50;;;;;;;-3.73;66.42;97808.17;104009;1316;138402;-83
2021/12/04 02:06:19;;;;;;;22.70;8.60;;;;;;;-3.75;66.43;97806.98;103921;1318;24100;-81
2021/12/04 02:08:47;;;;;;;20.60;8.80;;;;;;;-3.76;66.37;97802.83;103269;1315;140273;-82
2021/12/04 02:11:14;;;;;;;20.90;8.90;;;;;;;-3.78;66.36;97800.04;103755;1318;23534;-82
2021/12/04 02:13:41;;;;;;;23.60;9.20;;;;;;;-3.79;66.32;97794.16;103903;1322;24212;-83
2021/12/04 02:16:17;;;;;;;23.60;9.20;;;;;;;-3.81;66.53;97789.38;103532;1321;138483;-82
2021/12/04 02:18:45;;;;;;;24.00;8.90;;;;;;;-3.83;66.93;97782.16;104278;1322;22590;-82
2021/12/04 02:21:14;;;;;;;22.70;9.10;;;;;;;-3.87;66.55;97775.33;103619;1321;137913;-82
2021/12/04 02:23:42;;;;;;;19.80;8.10;;;;;;;-3.90;67.17;97770.21;103700;1316;22714;-82
2021/12/04 02:26:11;;;;;;;20.40;8.90;;;;;;;-3.93;66.87;97763.04;104173;1316;138439;-82
2021/12/04 02:28:43;;;;;;;20.20;8.70;;;;;;;-3.96;67.08;97761.65;103861;1315;23340;-82
2021/12/04 02:31:11;;;;;;;23.50;9.00;;;;;;;-4.00;67.20;97753.88;103894;1316;25233;-82
2021/12/04 02:33:39;;;;;;;21.70;8.80;;;;;;;-4.03;66.96;97751.70;103613;1315;137851;-82
2021/12/04 02:36:07;;;;;;;22.30;9.30;;;;;;;-4.05;67.31;97751.09;103351;1322;25476;-82
2021/12/04 02:38:35;;;;;;;24.40;10.10;;;;;;;-4.08;67.41;97747.72;103684;1316;137665;-82
2021/12/04 02:41:03;;;;;;;20.70;9.50;;;;;;;-4.09;67.83;97745.70;103970;1323;22589;-82
2021/12/04 02:43:34;;;;;;;19.20;9.30;;;;;;;-4.08;67.78;97744.62;103781;1323;22712;-82
2021/12/04 02:46:03;;;;;;;29.20;10.80;;;;;;;-4.05;67.36;97740.31;103433;1314;138247;-82
2021/12/04 02:48:31;;;;;;;33.10;10.90;;;;;;;-4.04;66.82;97742.92;104167;1321;22594;-82
2021/12/04 02:50:59;;;;;;;27.80;11.40;;;;;;;-4.03;66.88;97745.11;103823;1319;139316;-82
2021/12/04 02:53:26;;;;;;;25.50;11.20;;;;;;;-4.01;66.97;97742.14;103698;1315;22479;-82
2021/12/04 02:55:54;;;;;;;28.20;10.90;;;;;;;-4.00;66.36;97739.89;103514;1320;138729;-82
2021/12/04 02:58:21;;;;;;;25.20;9.70;;;;;;;-4.00;66.21;97741.69;103603;1316;23239;-82
2021/12/04 03:00:50;;;;;;;24.90;10.30;;;;;;;-4.00;66.27;97742.21;103318;1316;23127;-80
2021/12/04 03:03:19;;;;;;;20.00;9.00;;;;;;;-4.03;66.32;97735.54;103254;1316;138131;-80
2021/12/04 03:05:50;;;;;;;21.70;8.80;;;;;;;-4.04;66.29;97732.52;103480;1322;22836;-81
2021/12/04 03:08:19;;;;;;;25.70;9.10;;;;;;;-4.07;66.74;97732.48;103681;1321;138068;-80
2021/12/04 03:10:50;;;;;;;25.40;9.70;;;;;;;-4.10;66.67;97731.04;103667;1316;25354;-81
2021/12/04 03:13:20;;;;;;;23.30;9.90;;;;;;;-4.13;67.20;97725.90;103730;1325;24315;-81
2021/12/04 03:15:56;;;;;;;19.90;8.40;;;;;;;-4.15;66.86;97720.41;103376;1320;137728;-81
2021/12/04 03:18:24;;;;;;;24.00;10.70;;;;;;;-4.17;66.62;97721.59;104032;1316;22696;-80
2021/12/04 03:20:54;;;;;;;26.60;10.80;;;;;;;-4.19;66.95;97725.02;103696;1322;138076;-81
2021/12/04 03:23:41;;;;;;;31.50;12.40;;;;;;;-4.22;66.92;97717.80;103423;1322;22640;-80
2021/12/04 03:26:10;;;;;;;28.00;10.80;;;;;;;-4.22;67.34;97718.49;103652;1322;137977;-83
2021/12/04 03:28:40;;;;;;;27.50;11.00;;;;;;;-4.23;67.20;97718.06;103686;1319;23380;-81
2021/12/04 03:31:20;;;;;;;29.60;11.10;;;;;;;-4.25;67.32;97722.93;103643;1316;23925;-81
2021/12/04 03:42:05;;;;;;;22.80;9.30;;;;;;;-4.30;67.21;97708.62;103734;1321;23011;-82
2021/12/04 03:44:32;;;;;;;26.80;10.40;;;;;;;-4.31;67.45;97708.45;103779;1323;137836;-83
2021/12/04 03:47:01;;;;;;;31.00;11.30;;;;;;;-4.31;67.11;97705.44;103643;1321;22609;-83
2021/12/04 03:49:28;;;;;;;25.40;11.20;;;;;;;-4.30;67.00;97709.05;103826;1316;22600;-80
2021/12/04 03:51:55;;;;;;;24.30;10.50;;;;;;;-4.30;66.95;97706.33;103501;1320;138280;-82
2021/12/04 03:54:23;;;;;;;21.90;8.70;;;;;;;-4.29;66.92;97703.54;103538;1316;22593;-82
2021/12/04 03:57:00;;;;;;;26.70;9.60;;;;;;;-4.27;66.53;97701.60;103998;1320;138022;-83
2021/12/04 03:59:28;;;;;;;21.40;9.20;;;;;;;-4.26;66.95;97699.27;103785;1321;22588;-83
2021/12/04 04:01:56;;;;;;;21.10;9.00;;;;;;;-4.24;66.20;97702.10;103604;1317;137933;-83
2021/12/04 04:04:23;;;;;;;30.60;11.80;;;;;;;-4.21;66.62;97700.16;103501;1321;25361;-82
2021/12/04 04:06:51;;;;;;;23.80;11.00;;;;;;;-4.17;66.95;97698.23;103789;1320;22577;-83
2021/12/04 04:09:19;;;;;;;27.20;10.50;;;;;;;-4.12;66.77;97694.92;103554;1321;138592;-83
2021/12/04 04:11:47;;;;;;;23.30;11.30;;;;;;;-4.06;66.88;97697.27;103865;1321;22572;-83
2021/12/04 04:14:15;;;;;;;25.60;9.80;;;;;;;-4.00;66.74;97694.22;103455;1316;137936;-82
2021/12/04 04:16:43;;;;;;;28.50;11.30;;;;;;;-3.95;66.79;97696.14;103852;1321;24323;-82
2021/12/04 04:19:11;;;;;;;28.40;11.80;;;;;;;-3.91;66.59;97692.49;103409;1323;22596;-82
2021/12/04 04:21:40;;;;;;;25.50;11.10;;;;;;;-3.88;66.77;97690.27;103520;1317;138043;-82
2021/12/04 04:24:14;;;;;;;22.50;9.80;;;;;;;-3.89;67.11;97690.11;103521;1323;23970;-82
2021/12/04 04:26:43;;;;;;;27.90;11.90;;;;;;;-3.92;67.59;97693.48;103449;1317;137870;-82
2021/12/04 04:29:12;;;;;;;31.40;12.10;;;;;;;-3.95;67.96;97690.61;103660;1317;24275;-82
2021/12/04 04:31:46;;;;;;;25.60;11.60;;;;;;;-3.97;67.53;97683.61;104015;1321;22586;-82
2021/12/04 04:34:20;;;;;;;22.00;10.60;;;;;;;-4.00;67.93;97676.09;103559;1323;138337;-82
2021/12/04 04:37:03;;;;;;;25.00;10.80;;;;;;;-4.06;68.09;97666.83;103872;1316;22593;-81
2021/12/04 05:01:50;;;;;;;32.80;11.90;;;;;;;-4.36;68.57;97645.84;103094;1325;23047;-81
2021/12/04 05:21:08;;;;;;;24.90;10.70;;;;;;;-4.35;69.28;97621.29;103662;1321;138005;-82
2021/12/04 05:23:47;;;;;;;27.80;11.00;;;;;;;-4.34;68.84;97618.73;104670;1322;22831;-82
2021/12/04 05:26:26;;;;;;;27.40;10.60;;;;;;;-4.33;69.08;97609.98;103836;1315;138297;-82
2021/12/04 05:28:58;;;;;;;23.70;9.40;;;;;;;-4.33;68.74;97611.05;103700;1322;22612;-82
2021/12/04 05:31:27;;;;;;;25.40;9.20;;;;;;;-4.34;68.59;97607.89;104120;1316;22602;-82
2021/12/04 05:33:54;;;;;;;26.40;11.10;;;;;;;-4.35;68.53;97608.57;103664;1318;137705;-82
2021/12/04 05:36:23;;;;;;;22.90;9.80;;;;;;;-4.37;68.61;97616.75;103581;1323;22573;-82
2021/12/04 05:38:51;;;;;;;;;;;;;;;-4.40;68.57;97617.91;103256;1320;137810;-82
2021/12/04 05:41:18;;;;;;;20.90;9.30;;;;;;;-4.43;68.51;97616.33;103653;1323;22595;-82
2021/12/04 05:43:47;;;;;;;24.70;11.60;;;;;;;-4.47;68.81;97611.95;103649;1323;24107;-82
2021/12/04 05:46:17;;;;;;;28.30;10.60;;;;;;;-4.50;69.11;97613.96;103807;1316;137717;-82
2021/12/04 05:48:56;;;;;;;30.90;10.80;;;;;;;-4.55;69.30;97612.52;103879;1316;22570;-82
2021/12/04 05:51:31;;;;;;;26.60;10.40;;;;;;;-4.58;69.75;97608.06;103450;1321;138203;-82
2021/12/04 05:54:03;;;;;;;26.50;9.00;;;;;;;-4.61;69.90;97604.73;103850;1316;22797;-82
2021/12/04 05:56:33;;;;;;;20.20;8.90;;;;;;;-4.65;70.00;97598.05;103779;1323;138018;-82
2021/12/04 05:59:02;;;;;;;25.20;10.90;;;;;;;-4.68;70.18;97594.55;103988;1321;22629;-82
2021/12/04 06:01:30;;;;;;;25.20;10.70;;;;;;;-4.68;70.26;97595.93;103736;1321;22710;-82
2021/12/04 06:03:59;;;;;;;26.60;10.80;;;;;;;-4.66;70.53;97591.66;103297;1319;138898;-82
2021/12/04 06:06:26;;;;;;;20.30;9.40;;;;;;;-4.62;70.38;97587.98;103799;1316;22597;-82
2021/12/04 06:08:54;;;;;;;25.10;10.20;;;;;;;-4.59;70.58;97582.30;103714;1316;137775;-81
2021/12/04 06:11:22;;;;;;;20.20;9.00;;;;;;;-4.54;70.66;97576.48;103619;1321;22607;-82
2021/12/04 06:13:50;;;;;;;18.30;7.90;;;;;;;-4.49;70.46;97570.24;103655;1320;22628;-82
2021/12/04 06:16:17;;;;;;;16.10;6.60;;;;;;;-4.46;70.18;97570.92;103571;1316;137867;-82
2021/12/04 06:18:51;;;;;;;18.20;7.40;;;;;;;-4.42;69.98;97570.48;103359;1317;22955;-81
2021/12/04 06:24:07;;;;;;;17.60;6.30;;;;;;;-4.35;69.66;97565.34;103878;1320;22636;-82
2021/12/04 06:26:36;;;;;;;15.00;6.30;;;;;;;-4.31;69.69;97567.06;103449;1318;137810;-82
2021/12/04 06:29:05;;;;;;;19.50;9.10;;;;;;;-4.29;70.20;97560.36;103625;1320;25547;-81
2021/12/04 06:31:32;;;;;;;16.30;7.20;;;;;;;-4.27;70.27;97553.98;103647;1316;22628;-81
2021/12/04 06:34:00;;;;;;;15.20;5.70;;;;;;;-4.26;70.59;97551.85;103513;1324;137858;-82
2021/12/04 06:36:28;;;;;;;8.90;3.90;;;;;;;-4.23;70.07;97552.56;103938;1318;24260;-82
2021/12/04 06:38:55;;;;;;;10.40;4.60;;;;;;;-4.18;69.57;97553.69;103539;1319;137602;-82
2021/12/04 06:41:24;;;;;;;10.60;4.00;;;;;;;-4.15;69.36;97550.13;103544;1316;22606;-82
2021/12/04 06:43:52;;;;;;;9.80;4.80;;;;;;;-4.11;69.61;97553.58;103273;1323;25280;-82
2021/12/04 06:46:20;;;;;;;11.90;4.80;;;;;;;-4.07;69.56;97549.20;103783;1320;137557;-81
2021/12/04 06:51:32;;;;;;;13.90;5.60;;;;;;;-3.98;69.81;97546.78;103514;1321;137869;-82
2021/12/04 06:54:07;;;;;;;11.60;5.00;;;;;;;-3.93;69.84;97549.41;103949;1315;22561;-82
2021/12/04 06:56:36;;;;;;;9.20;5.00;;;;;;;-3.88;69.55;97539.82;103315;1317;137996;-82
2021/12/04 06:59:08;;;;;;;12.40;5.40;;;;;;;-3.83;69.10;97536.95;103568;1323;24426;-82
2021/12/04 07:01:37;;;;;;;10.60;4.80;;;;;;;-3.79;68.28;97538.79;103829;1320;22583;-81
2021/12/04 07:04:06;;;;;;;10.60;4.80;;;;;;;-3.74;68.48;97539.99;103865;1322;138675;-82
2021/12/04 07:06:34;;;;;;;;;;;;;;;-3.66;67.87;97537.10;104090;1320;23676;-82
2021/12/04 07:09:03;;;;;;;8.40;3.70;;;;;;;-3.57;67.10;97539.07;103589;1322;123857;-82
2021/12/04 07:11:31;;;;;;;8.60;3.90;;;;;;;-3.50;67.05;97538.59;103836;1316;22597;-82
2021/12/04 07:13:59;;;;;;;11.70;4.30;;;;;;;-3.41;67.50;97543.23;103401;1318;137686;-81
2021/12/04 07:16:27;;;;;;;12.20;4.80;;;;;;;-3.33;67.53;97547.05;103578;1319;25182;-82
2021/12/04 07:18:55;;;;;;;8.60;4.80;;;;;;;-3.26;67.85;97551.42;103429;1316;25426;-82
2021/12/04 07:21:23;;;;;;;11.50;4.60;;;;;;;-3.19;68.12;97555.09;103249;1315;137692;-82
2021/12/04 07:23:51;;;;;;;11.80;5.40;;;;;;;-3.12;68.19;97547.71;103215;1321;22659;-81
2021/12/04 07:26:19;;;;;;;8.70;4.40;;;;;;;-3.06;68.46;97543.80;103438;1315;138306;-82
2021/12/04 07:28:47;;;;;;;8.90;4.30;;;;;;;-3.00;67.97;97536.02;103607;1320;22790;-82
2021/12/04 07:31:15;;;;;;;14.40;5.10;;;;;;;-2.95;68.13;97535.23;103714;1321;25242;-82
2021/12/04 07:33:42;;;;;;;12.70;5.90;;;;;;;-2.90;67.97;97537.98;103714;1323;138053;-81
2021/12/04 07:36:10;;;;;;;12.00;5.80;;;;;;;-2.85;68.07;97541.29;103603;1316;25361;-81
2021/12/04 07:38:38;;;;;;;12.20;5.70;;;;;;;-2.78;68.36;97539.99;103856;1322;137943;-82
2021/12/04 07:41:07;;;;;;;15.40;6.70;;;;;;;-2.72;68.15;97539.30;103578;1322;25281;-82
2021/12/04 07:43:35;;;;;;;16.50;6.90;;;;;;;-2.66;68.50;97537.83;103896;1316;22611;-82
2021/12/04 07:46:03;;;;;;;16.20;6.80;;;;;;;-2.60;68.17;97537.45;103566;1323;137850;-82
2021/12/04 07:48:30;;;;;;;65.00;23.10;;;;;;;-2.56;68.86;97533.20;103916;1316;25392;-82
2021/12/04 07:51:02;;;;;;;48.30;19.50;;;;;;;-2.54;71.06;97528.02;103645;1321;138288;-82
2021/12/04 07:53:31;;;;;;;38.10;14.00;;;;;;;-2.50;69.90;97527.10;103628;1316;22609;-82
2021/12/04 07:56:00;;;;;;;;;;;;;;;-2.41;69.07;97524.83;103597;1322;138383;-82
2021/12/04 07:58:28;;;;;;;28.50;8.80;;;;;;;-2.31;68.34;97521.71;104007;1320;24320;-82
2021/12/04 08:00:56;;;;;;;23.20;7.90;;;;;;;-2.22;68.10;97523.10;103903;1317;22581;-82
2021/12/04 08:03:24;;;;;;;19.10;8.00;;;;;;;-2.14;67.94;97515.70;103657;1316;137890;-82
2021/12/04 08:05:52;;;;;;;15.60;6.30;;;;;;;-2.05;67.49;97515.34;103766;1321;25266;-82
2021/12/04 08:08:19;;;;;;;19.60;6.50;;;;;;;-1.97;67.80;97501.39;103320;1316;137707;-82
2021/12/04 08:10:47;;;;;;;16.10;6.70;;;;;;;-1.88;67.58;97503.47;103669;1318;26147;-82
2021/12/04 08:13:15;;;;;;;14.90;6.70;;;;;;;-1.79;67.25;97495.83;104012;1316;22593;-82
2021/12/04 08:15:42;;;;;;;14.70;6.20;;;;;;;-1.71;67.47;97496.20;103478;1316;137720;-82
2021/12/04 08:18:09;;;;;;;14.50;6.70;;;;;;;-1.60;67.20;97499.13;103465;1316;25340;-82
2021/12/04 08:20:37;;;;;;;11.90;5.50;;;;;;;-1.49;67.18;97504.02;103124;1319;138185;-82
2021/12/04 08:23:06;;;;;;;13.60;6.40;;;;;;;-1.39;66.91;97502.48;103567;1316;23241;-82
2021/12/04 08:25:34;;;;;;;19.70;7.30;;;;;;;-1.28;65.93;97496.07;103862;1316;24368;-82
2021/12/04 08:28:02;;;;;;;15.30;6.90;;;;;;;-1.20;65.79;97495.56;103879;1316;138808;-82
2021/12/04 08:30:33;;;;;;;12.40;6.50;;;;;;;-1.12;65.38;97494.06;103715;1322;22591;-82
2021/12/04 08:33:01;;;;;;;11.50;6.10;;;;;;;-1.06;64.80;97495.30;103439;1323;137626;-82
2021/12/04 08:35:34;;;;;;;14.50;6.60;;;;;;;-1.00;65.12;97490.55;103820;1322;22584;-82
2021/12/04 08:38:02;;;;;;;11.10;6.00;;;;;;;-0.95;64.98;97488.46;103673;1316;137804;-82
2021/12/04 08:40:30;;;;;;;10.20;5.30;;;;;;;-0.89;64.59;97490.77;103703;1320;22583;-83
2021/12/04 08:42:57;;;;;;;14.60;6.40;;;;;;;-0.85;64.52;97489.77;103742;1316;23345;-83
2021/12/04 08:45:26;;;;;;;15.90;6.80;;;;;;;-0.81;64.04;97486.86;103394;1320;137597;-83
2021/12/04 08:47:53;;;;;;;14.00;6.20;;;;;;;-0.76;63.90;97481.31;103532;1321;22755;-83
2021/12/04 08:50:25;;;;;;;13.40;6.90;;;;;;;-0.72;63.58;97482.02;103669;1314;138158;-83
2021/12/04 08:52:54;;;;;;;35.30;16.60;;;;;;;-0.67;63.38;97486.73;103714;1321;22668;-83
2021/12/04 08:55:23;;;;;;;75.20;28.30;;;;;;;-0.67;66.57;97488.11;103679;1316;25456;-83
2021/12/04 08:57:51;;;;;;;85.20;33.90;;;;;;;-0.71;67.97;97493.59;104102;1321;138057;-83
2021/12/04 09:00:26;;;;;;;70.50;27.60;;;;;;;-0.75;69.16;97487.89;103864;1317;24345;-83
2021/12/04 09:02:54;;;;;;;98.80;40.40;;;;;;;-0.79;70.14;97486.67;103525;1316;137827;-83
2021/12/04 09:05:23;;;;;;;92.20;37.10;;;;;;;-0.81;70.76;97482.27;103738;1316;23258;-83
2021/12/04 09:07:53;;;;;;;96.90;38.70;;;;;;;-0.77;71.18;97479.44;103386;1319;22804;-83
2021/12/04 09:10:21;;;;;;;106.10;40.60;;;;;;;-0.70;71.40;97476.65;104377;1321;138632;-83
2021/12/04 09:12:50;;;;;;;103.90;45.00;;;;;;;-0.67;71.75;97476.02;103635;1316;22621;-83
2021/12/04 09:15:24;;;;;;;94.10;38.80;;;;;;;-0.64;72.19;97474.58;103473;1318;138769;-83
2021/12/04 09:17:51;;;;;;;101.50;43.00;;;;;;;-0.52;72.49;97472.91;103503;1322;22600;-83
2021/12/04 09:20:20;;;;;;;108.90;43.20;;;;;;;-0.46;72.20;97474.71;103614;1321;138060;-83
2021/12/04 09:22:48;;;;;;;108.00;43.60;;;;;;;-0.39;72.09;97469.95;103860;1320;22564;-83
2021/12/04 09:25:22;;;;;;;100.10;39.80;;;;;;;-0.35;71.99;97466.52;103917;1317;23266;-83
2021/12/04 10:11:48;;;;;;;76.40;27.40;;;;;;;1.33;69.36;97394.30;104354;1317;23271;-83
2021/12/04 10:14:45;;;;;;;40.90;15.70;;;;;;;1.49;68.08;97390.48;103795;1317;137796;-84
2021/12/04 10:20:32;;;;;;;27.00;13.60;;;;;;;1.68;65.28;97379.70;103452;1319;23288;-83
2021/12/04 10:33:59;;;;;;;20.30;9.10;;;;;;;1.97;61.38;97368.95;103626;1319;137251;-84
2021/12/04 10:36:34;;;;;;;24.20;11.70;;;;;;;1.99;60.67;97366.13;104192;1322;23442;-85
2021/12/04 10:39:04;;;;;;;33.80;14.30;;;;;;;1.96;60.45;97362.23;105057;1317;137858;-85
2021/12/04 10:41:39;;;;;;;18.70;9.70;;;;;;;1.97;60.32;97364.58;103358;1320;31772;-84
2021/12/04 10:44:15;;;;;;;18.50;9.60;;;;;;;1.96;59.60;97365.81;104139;1315;22611;-84
2021/12/04 10:47:05;;;;;;;19.60;9.90;;;;;;;1.96;58.91;97361.85;103618;1316;137788;-84
2021/12/04 10:49:57;;;;;;;23.30;9.60;;;;;;;1.98;58.56;97352.71;103828;1318;22603;-84
2021/12/04 11:01:27;;;;;;;21.50;9.50;;;;;;;2.01;58.27;97331.87;103790;1316;22751;-84
2021/12/04 11:43:20;;;;;;;15.00;7.10;;;;;;;2.97;54.11;97261.55;103762;1316;29435;-86
2021/12/04 11:48:31;;;;;;;11.90;6.50;;;;;;;3.08;53.69;97254.27;103527;1316;24320;-86
2021/12/04 11:51:00;;;;;;;13.50;6.80;;;;;;;3.14;53.74;97250.80;103598;1317;138972;-85
2021/12/04 11:53:31;;;;;;;11.60;7.00;;;;;;;3.18;53.44;97253.63;103930;1318;22627;-87
2021/12/04 11:56:00;;;;;;;13.70;6.20;;;;;;;3.20;52.95;97253.05;104207;1316;22718;-85
2021/12/04 11:58:32;;;;;;;18.40;7.00;;;;;;;3.25;52.83;97252.15;103828;1316;138388;-86
2021/12/04 12:01:04;;;;;;;12.70;6.50;;;;;;;3.30;52.46;97240.98;103853;1318;25637;-87
2021/12/04 12:03:34;;;;;;;15.50;7.30;;;;;;;3.36;52.50;97244.54;103528;1316;137688;-86
2021/12/04 12:06:09;;;;;;;9.20;5.60;;;;;;;3.40;51.98;97236.25;104219;1315;25367;-87
2021/12/04 12:08:40;;;;;;;12.80;6.70;;;;;;;3.40;51.38;97233.52;103566;1322;25533;-87
2021/12/04 12:11:09;;;;;;;14.20;6.50;;;;;;;3.40;52.06;97231.20;103665;1318;137755;-86
2021/12/04 12:13:47;;;;;;;12.30;5.90;;;;;;;3.41;52.27;97224.39;104096;1321;25381;-87
2021/12/04 12:16:23;;;;;;;11.10;5.30;;;;;;;3.42;51.99;97218.62;104286;1316;138136;-87
2021/12/04 12:18:58;;;;;;;10.80;6.30;;;;;;;3.43;52.07;97217.31;104044;1321;22952;-88
2021/12/04 12:21:41;;;;;;;11.30;6.70;;;;;;;3.43;51.50;97213.51;103519;1321;137601;-88
2021/12/04 12:38:33;;;;;;;13.80;7.00;;;;;;;3.29;52.47;97200.88;103576;1322;25325;-88
2021/12/04 12:41:15;;;;;;;15.80;6.00;;;;;;;3.26;52.68;97202.25;103659;1318;137363;-87
2021/12/04 12:43:59;;;;;;;9.70;5.70;;;;;;;3.23;52.49;97195.66;103797;1323;22558;-87
2021/12/04 12:46:35;;;;;;;11.20;5.80;;;;;;;3.20;52.61;97193.44;103066;1316;706706;-87
2021/12/04 12:49:05;;;;;;;13.10;6.00;;;;;;;3.16;52.91;97186.70;103727;1316;25506;-87
2021/12/04 12:51:35;;;;;;;14.00;6.50;;;;;;;3.10;53.40;97186.39;103883;1318;137466;-87
2021/12/04 12:54:07;;;;;;;9.10;5.40;;;;;;;3.02;54.14;97181.45;103602;1316;23340;-88
2021/12/04 12:56:37;;;;;;;18.10;7.90;;;;;;;2.92;54.52;97183.10;103331;1322;22634;-87
2021/12/04 12:59:22;;;;;;;18.80;9.40;;;;;;;2.81;54.85;97179.40;103573;1315;137410;-87
2021/12/04 13:13:45;;;;;;;24.10;10.70;;;;;;;2.32;57.22;97189.05;103850;1322;22632;-87
2021/12/04 13:16:31;;;;;;;27.50;11.90;;;;;;;2.25;57.26;97187.73;103756;1322;137712;-87
2021/12/04 13:19:06;;;;;;;29.50;11.80;;;;;;;2.15;57.76;97188.75;103810;1316;22659;-87
2021/12/04 13:21:38;;;;;;;34.60;12.80;;;;;;;2.04;58.01;97186.43;103419;1316;137759;-87
2021/12/04 13:24:10;;;;;;;34.80;12.90;;;;;;;1.93;58.39;97189.52;103997;1314;22596;-87
2021/12/04 13:26:48;;;;;;;31.60;13.20;;;;;;;1.84;58.58;97191.91;104534;1321;25325;-87
2021/12/04 13:31:47;;;;;;;31.10;12.30;;;;;;;1.68;58.78;97191.31;104019;1319;25335;-87
2021/12/04 13:34:27;;;;;;;32.90;13.40;;;;;;;1.60;59.18;97192.86;103721;1315;138198;-87
2021/12/04 13:36:57;;;;;;;26.40;11.40;;;;;;;1.51;59.57;97195.09;103474;1323;22649;-87
2021/12/04 13:39:25;;;;;;;28.10;12.40;;;;;;;1.44;59.55;97197.27;104106;1319;137788;-87
2021/12/04 13:41:54;;;;;;;27.40;12.10;;;;;;;1.37;59.71;97193.83;104367;1321;22726;-87
2021/12/04 13:44:28;;;;;;;28.40;12.60;;;;;;;1.32;60.10;97197.04;103402;1317;25240;-90
2021/12/04 13:47:03;;;;;;;25.60;12.90;;;;;;;1.27;60.44;97193.56;103635;1316;137828;-87
2021/12/04 13:49:55;;;;;;;33.90;13.20;;;;;;;1.23;60.74;97198.08;104162;1315;22602;-86
2021/12/04 13:52:25;;;;;;;28.30;12.70;;;;;;;1.19;60.85;97199.34;103816;1321;137695;-86
2021/12/04 13:55:08;;;;;;;32.30;13.50;;;;;;;1.16;61.15;97193.30;103596;1323;25386;-86
2021/12/04 13:57:42;;;;;;;32.20;12.60;;;;;;;1.13;61.50;97192.88;103876;1321;138452;-87
2021/12/04 14:00:16;;;;;;;31.00;14.60;;;;;;;1.12;61.74;97193.58;103804;1323;23121;-85
2021/12/04 14:02:44;;;;;;;36.50;15.50;;;;;;;1.07;61.96;97189.89;104043;1318;22574;-87
2021/12/04 14:05:23;;;;;;;40.20;18.20;;;;;;;1.09;62.18;97194.01;103960;1323;137800;-87
2021/12/04 14:07:56;;;;;;;39.70;18.60;;;;;;;1.05;62.34;97196.80;103418;1323;41023;-87
2021/12/04 14:10:45;;;;;;;37.60;18.40;;;;;;;1.02;62.40;97194.17;103597;1320;137488;-87
2021/12/04 14:13:16;;;;;;;41.40;19.20;;;;;;;1.00;62.84;97192.95;103693;1315;25538;-87
2021/12/04 14:15:45;;;;;;;42.70;18.80;;;;;;;0.99;62.74;97193.56;103825;1318;137768;-86
2021/12/04 14:18:22;;;;;;;44.20;20.00;;;;;;;0.98;62.83;97195.48;103510;1319;22797;-87
2021/12/04 14:20:54;;;;;;;43.50;18.90;;;;;;;0.98;63.12;97192.14;103684;1316;25270;-87
2021/12/04 14:23:25;;;;;;;41.40;20.20;;;;;;;0.97;62.94;97193.91;103880;1316;137443;-87
2021/12/04 14:25:55;;;;;;;44.00;19.70;;;;;;;0.95;63.06;97188.98;103882;1316;22609;-87
2021/12/04 14:28:35;;;;;;;42.90;19.60;;;;;;;0.93;63.40;97194.55;103809;1320;137511;-85
2021/12/04 14:31:03;;;;;;;;;;;;;;;0.92;63.27;97197.04;104080;1315;22703;-87
2021/12/04 14:33:31;;;;;;;56.40;23.10;;;;;;;0.91;63.26;97196.67;104154;1315;124105;-85
2021/12/04 14:35:59;;;;;;;72.60;27.60;;;;;;;0.88;63.02;97200.06;103590;1316;23894;-87
2021/12/04 14:38:28;;;;;;;66.40;27.20;;;;;;;0.86;63.05;97195.54;103908;1318;22599;-86
2021/12/04 14:41:08;;;;;;;67.50;26.00;;;;;;;0.84;63.01;97194.80;103878;1316;137675;-86
2021/12/04 14:43:39;;;;;;;49.80;23.20;;;;;;;0.81;63.39;97187.73;103382;1319;23628;-86
2021/12/04 14:46:14;;;;;;;54.00;23.70;;;;;;;0.78;62.79;97186.89;103488;1318;138454;-86
2021/12/04 14:48:52;;;;;;;50.80;23.60;;;;;;;0.77;63.15;97188.66;103437;1318;24299;-86
2021/12/04 14:51:22;;;;;;;55.30;24.90;;;;;;;0.74;63.44;97182.58;103374;1315;137908;-86
2021/12/04 14:53:55;;;;;;;53.90;23.60;;;;;;;0.71;63.32;97180.65;103759;1321;24260;-86